sensor_id;sensor_type;location;lat;lon;timestamp;pressure;altitude;pressure_sealevel;temperature;humidity
44663;BME280;30381;52.754;18.258;2023-02-15T00:02:20;102493.75;;;-1.68;100.00
44663;BME280;30381;52.754;18.258;2023-02-15T00:04:46;102492.19;;;-1.71;100.00
44663;BME280;30381;52.754;18.258;2023-02-15T00:07:14;102491.30;;;-1.74;100.00
44663;BME280;30381;52.754;18.258;2023-02-15T00:09:41;102488.74;;;-1.75;100.00
44663;BME280;30381;52.754;18.258;2023-02-15T00:12:09;102485.70;;;-1.77;100.00
44663;BME280;30381;52.754;18.258;2023-02-15T00:14:36;102484.73;;;-1.78;100.00
44663;BME280;30381;52.754;18.258;2023-02-15T00:17:02;102486.98;;;-1.80;100.00
44663;BME280;30381;52.754;18.258;2023-02-15T00:19:30;102485.52;;;-1.82;100.00
44663;BME280;30381;52.754;18.258;2023-02-15T00:21:56;102481.09;;;-1.84;100.00
44663;BME280;30381;52.754;18.258;2023-02-15T00:24:22;102481.95;;;-1.86;100.00
44663;BME280;30381;52.754;18.258;2023-02-15T00:26:51;102480.48;;;-1.88;100.00
44663;BME280;30381;52.754;18.258;2023-02-15T00:29:19;102481.50;;;-1.90;100.00
44663;BME280;30381;52.754;18.258;2023-02-15T00:31:51;102482.31;;;-1.91;100.00
44663;BME280;30381;52.754;18.258;2023-02-15T00:34:24;102481.51;;;-1.92;100.00
44663;BME280;30381;52.754;18.258;2023-02-15T00:36:51;102484.02;;;-1.93;100.00
44663;BME280;30381;52.754;18.258;2023-02-15T00:39:17;102481.61;;;-1.94;100.00
44663;BME280;30381;52.754;18.258;2023-02-15T00:41:45;102482.02;;;-1.94;100.00
44663;BME280;30381;52.754;18.258;2023-02-15T00:44:13;102485.02;;;-1.97;100.00
44663;BME280;30381;52.754;18.258;2023-02-15T00:46:40;102484.45;;;-1.99;100.00
44663;BME280;30381;52.754;18.258;2023-02-15T00:49:06;102485.67;;;-2.01;100.00
44663;BME280;30381;52.754;18.258;2023-02-15T00:51:32;102483.04;;;-2.01;100.00
44663;BME280;30381;52.754;18.258;2023-02-15T00:53:59;102481.79;;;-2.03;100.00
44663;BME280;30381;52.754;18.258;2023-02-15T00:56:25;102484.43;;;-2.05;100.00
44663;BME280;30381;52.754;18.258;2023-02-15T00:58:54;102483.60;;;-2.06;100.00
44663;BME280;30381;52.754;18.258;2023-02-15T01:01:20;102481.86;;;-2.07;100.00
44663;BME280;30381;52.754;18.258;2023-02-15T01:03:47;102480.98;;;-2.07;100.00
44663;BME280;30381;52.754;18.258;2023-02-15T01:06:16;102480.29;;;-2.07;100.00
44663;BME280;30381;52.754;18.258;2023-02-15T01:08:45;102483.11;;;-2.07;100.00
44663;BME280;30381;52.754;18.258;2023-02-15T01:11:14;102479.10;;;-2.08;100.00
44663;BME280;30381;52.754;18.258;2023-02-15T01:13:41;102477.96;;;-2.09;100.00
44663;BME280;30381;52.754;18.258;2023-02-15T01:16:08;102477.87;;;-2.10;100.00
44663;BME280;30381;52.754;18.258;2023-02-15T01:18:35;102478.83;;;-2.11;100.00
44663;BME280;30381;52.754;18.258;2023-02-15T01:21:13;102479.71;;;-2.13;100.00
44663;BME280;30381;52.754;18.258;2023-02-15T01:23:41;102475.09;;;-2.16;100.00
44663;BME280;30381;52.754;18.258;2023-02-15T01:26:09;102474.91;;;-2.19;100.00
44663;BME280;30381;52.754;18.258;2023-02-15T01:28:36;102471.02;;;-2.21;100.00
44663;BME280;30381;52.754;18.258;2023-02-15T01:31:07;102469.34;;;-2.25;100.00
44663;BME280;30381;52.754;18.258;2023-02-15T01:33:33;102466.67;;;-2.27;100.00
44663;BME280;30381;52.754;18.258;2023-02-15T01:36:01;102462.88;;;-2.28;100.00
44663;BME280;30381;52.754;18.258;2023-02-15T01:38:27;102456.25;;;-2.29;100.00
44663;BME280;30381;52.754;18.258;2023-02-15T01:40:54;102456.61;;;-2.32;100.00
44663;BME280;30381;52.754;18.258;2023-02-15T01:43:42;102453.15;;;-2.33;100.00
44663;BME280;30381;52.754;18.258;2023-02-15T01:46:13;102450.83;;;-2.35;100.00
44663;BME280;30381;52.754;18.258;2023-02-15T01:48:48;102449.23;;;-2.35;100.00
44663;BME280;30381;52.754;18.258;2023-02-15T01:51:18;102448.93;;;-2.38;100.00
44663;BME280;30381;52.754;18.258;2023-02-15T01:53:59;102444.54;;;-2.41;100.00
44663;BME280;30381;52.754;18.258;2023-02-15T01:56:31;102441.57;;;-2.44;100.00
44663;BME280;30381;52.754;18.258;2023-02-15T01:59:02;102440.20;;;-2.47;100.00
44663;BME280;30381;52.754;18.258;2023-02-15T02:01:30;102437.05;;;-2.50;100.00
44663;BME280;30381;52.754;18.258;2023-02-15T02:04:11;102431.64;;;-2.53;100.00
44663;BME280;30381;52.754;18.258;2023-02-15T02:06:39;102433.56;;;-2.55;100.00
44663;BME280;30381;52.754;18.258;2023-02-15T02:09:07;102430.29;;;-2.56;100.00
44663;BME280;30381;52.754;18.258;2023-02-15T02:11:34;102430.14;;;-2.57;100.00
44663;BME280;30381;52.754;18.258;2023-02-15T02:14:01;102429.10;;;-2.55;100.00
44663;BME280;30381;52.754;18.258;2023-02-15T02:16:41;102428.85;;;-2.51;100.00
44663;BME280;30381;52.754;18.258;2023-02-15T02:19:56;102428.29;;;-2.46;100.00
44663;BME280;30381;52.754;18.258;2023-02-15T02:31:43;102423.36;;;-2.11;100.00
44663;BME280;30381;52.754;18.258;2023-02-15T02:34:38;102423.47;;;-2.03;100.00
44663;BME280;30381;52.754;18.258;2023-02-15T02:37:18;102420.41;;;-1.95;100.00
44663;BME280;30381;52.754;18.258;2023-02-15T02:39:56;102418.77;;;-1.87;100.00
44663;BME280;30381;52.754;18.258;2023-02-15T02:42:38;102419.12;;;-1.80;100.00
44663;BME280;30381;52.754;18.258;2023-02-15T02:45:24;102418.11;;;-1.74;100.00
44663;BME280;30381;52.754;18.258;2023-02-15T02:48:00;102411.33;;;-1.66;100.00
44663;BME280;30381;52.754;18.258;2023-02-15T02:50:30;102409.13;;;-1.60;100.00
44663;BME280;30381;52.754;18.258;2023-02-15T02:52:58;102407.31;;;-1.55;100.00
44663;BME280;30381;52.754;18.258;2023-02-15T02:55:35;102405.55;;;-1.50;100.00
44663;BME280;30381;52.754;18.258;2023-02-15T03:03:58;102401.72;;;-1.33;100.00
44663;BME280;30381;52.754;18.258;2023-02-15T03:09:01;102403.79;;;-1.22;100.00
44663;BME280;30381;52.754;18.258;2023-02-15T03:11:31;102403.75;;;-1.17;100.00
44663;BME280;30381;52.754;18.258;2023-02-15T03:13:58;102401.20;;;-1.14;100.00
44663;BME280;30381;52.754;18.258;2023-02-15T03:16:25;102403.41;;;-1.11;100.00
44663;BME280;30381;52.754;18.258;2023-02-15T03:21:47;102401.69;;;-1.04;100.00
44663;BME280;30381;52.754;18.258;2023-02-15T03:24:21;102398.34;;;-1.00;100.00
44663;BME280;30381;52.754;18.258;2023-02-15T03:26:50;102404.96;;;-0.96;100.00
44663;BME280;30381;52.754;18.258;2023-02-15T03:29:24;102404.17;;;-0.93;100.00
44663;BME280;30381;52.754;18.258;2023-02-15T03:31:56;102400.34;;;-0.89;100.00
44663;BME280;30381;52.754;18.258;2023-02-15T03:34:24;102408.80;;;-0.86;100.00
44663;BME280;30381;52.754;18.258;2023-02-15T03:37:04;102405.30;;;-0.82;100.00
44663;BME280;30381;52.754;18.258;2023-02-15T03:39:47;102407.86;;;-0.79;100.00
44663;BME280;30381;52.754;18.258;2023-02-15T03:42:26;102409.06;;;-0.74;100.00
44663;BME280;30381;52.754;18.258;2023-02-15T03:45:03;102407.69;;;-0.70;100.00
44663;BME280;30381;52.754;18.258;2023-02-15T03:47:35;102404.25;;;-0.67;100.00
44663;BME280;30381;52.754;18.258;2023-02-15T03:50:10;102405.79;;;-0.64;100.00
44663;BME280;30381;52.754;18.258;2023-02-15T03:52:58;102407.23;;;-0.60;100.00
44663;BME280;30381;52.754;18.258;2023-02-15T03:55:25;102407.92;;;-0.57;100.00
44663;BME280;30381;52.754;18.258;2023-02-15T03:57:52;102401.84;;;-0.54;100.00
44663;BME280;30381;52.754;18.258;2023-02-15T04:00:40;102399.69;;;-0.52;100.00
44663;BME280;30381;52.754;18.258;2023-02-15T04:03:40;102392.94;;;-0.50;100.00
44663;BME280;30381;52.754;18.258;2023-02-15T04:06:08;102382.73;;;-0.48;100.00
44663;BME280;30381;52.754;18.258;2023-02-15T04:08:34;102385.08;;;-0.46;100.00
44663;BME280;30381;52.754;18.258;2023-02-15T04:11:22;102378.00;;;-0.45;100.00
44663;BME280;30381;52.754;18.258;2023-02-15T04:13:48;102378.79;;;-0.43;100.00
44663;BME280;30381;52.754;18.258;2023-02-15T04:16:23;102379.90;;;-0.41;100.00
44663;BME280;30381;52.754;18.258;2023-02-15T04:18:49;102380.83;;;-0.39;100.00
44663;BME280;30381;52.754;18.258;2023-02-15T04:21:34;102379.02;;;-0.37;100.00
44663;BME280;30381;52.754;18.258;2023-02-15T04:24:18;102374.04;;;-0.34;100.00
44663;BME280;30381;52.754;18.258;2023-02-15T04:27:04;102368.05;;;-0.32;100.00
44663;BME280;30381;52.754;18.258;2023-02-15T04:29:33;102367.06;;;-0.31;100.00
44663;BME280;30381;52.754;18.258;2023-02-15T04:32:00;102360.60;;;-0.30;100.00
44663;BME280;30381;52.754;18.258;2023-02-15T04:34:27;102362.45;;;-0.29;100.00
44663;BME280;30381;52.754;18.258;2023-02-15T04:36:53;102362.79;;;-0.29;100.00
44663;BME280;30381;52.754;18.258;2023-02-15T04:39:19;102363.83;;;-0.29;100.00
44663;BME280;30381;52.754;18.258;2023-02-15T04:41:46;102365.55;;;-0.28;100.00
44663;BME280;30381;52.754;18.258;2023-02-15T04:44:14;102369.63;;;-0.28;100.00
44663;BME280;30381;52.754;18.258;2023-02-15T04:47:02;102366.18;;;-0.27;100.00
44663;BME280;30381;52.754;18.258;2023-02-15T04:49:28;102361.39;;;-0.27;100.00
44663;BME280;30381;52.754;18.258;2023-02-15T04:51:54;102356.10;;;-0.27;100.00
44663;BME280;30381;52.754;18.258;2023-02-15T04:54:21;102355.02;;;-0.27;100.00
44663;BME280;30381;52.754;18.258;2023-02-15T04:56:47;102359.52;;;-0.26;100.00
44663;BME280;30381;52.754;18.258;2023-02-15T04:59:14;102360.79;;;-0.26;100.00
44663;BME280;30381;52.754;18.258;2023-02-15T05:01:41;102364.52;;;-0.26;100.00
44663;BME280;30381;52.754;18.258;2023-02-15T05:04:07;102363.95;;;-0.26;100.00
44663;BME280;30381;52.754;18.258;2023-02-15T05:06:33;102362.56;;;-0.26;100.00
44663;BME280;30381;52.754;18.258;2023-02-15T05:08:59;102363.73;;;-0.25;100.00
44663;BME280;30381;52.754;18.258;2023-02-15T05:11:26;102362.06;;;-0.24;100.00
44663;BME280;30381;52.754;18.258;2023-02-15T05:13:53;102360.24;;;-0.24;100.00
44663;BME280;30381;52.754;18.258;2023-02-15T05:16:19;102364.64;;;-0.24;100.00
44663;BME280;30381;52.754;18.258;2023-02-15T05:18:45;102365.08;;;-0.22;100.00
44663;BME280;30381;52.754;18.258;2023-02-15T05:21:11;102363.69;;;-0.23;100.00
44663;BME280;30381;52.754;18.258;2023-02-15T05:23:37;102368.64;;;-0.23;100.00
44663;BME280;30381;52.754;18.258;2023-02-15T05:26:04;102369.17;;;-0.22;100.00
44663;BME280;30381;52.754;18.258;2023-02-15T05:28:48;102364.60;;;-0.23;100.00
44663;BME280;30381;52.754;18.258;2023-02-15T05:31:18;102363.13;;;-0.22;100.00
44663;BME280;30381;52.754;18.258;2023-02-15T05:33:51;102366.10;;;-0.22;100.00
44663;BME280;30381;52.754;18.258;2023-02-15T05:36:17;102362.89;;;-0.21;100.00
44663;BME280;30381;52.754;18.258;2023-02-15T05:38:43;102364.23;;;-0.21;100.00
44663;BME280;30381;52.754;18.258;2023-02-15T05:41:11;102362.93;;;-0.20;100.00
44663;BME280;30381;52.754;18.258;2023-02-15T05:43:38;102358.56;;;-0.19;100.00
44663;BME280;30381;52.754;18.258;2023-02-15T05:46:05;102361.73;;;-0.18;100.00
44663;BME280;30381;52.754;18.258;2023-02-15T05:48:35;102358.16;;;-0.18;100.00
44663;BME280;30381;52.754;18.258;2023-02-15T05:51:12;102361.27;;;-0.17;100.00
44663;BME280;30381;52.754;18.258;2023-02-15T05:53:47;102355.00;;;-0.16;100.00
44663;BME280;30381;52.754;18.258;2023-02-15T05:56:23;102356.31;;;-0.15;100.00
44663;BME280;30381;52.754;18.258;2023-02-15T05:58:53;102354.02;;;-0.15;100.00
44663;BME280;30381;52.754;18.258;2023-02-15T06:01:19;102354.60;;;-0.15;100.00
44663;BME280;30381;52.754;18.258;2023-02-15T06:03:48;102350.39;;;-0.14;100.00
44663;BME280;30381;52.754;18.258;2023-02-15T06:06:16;102352.92;;;-0.13;100.00
44663;BME280;30381;52.754;18.258;2023-02-15T06:08:53;102351.05;;;-0.11;100.00
44663;BME280;30381;52.754;18.258;2023-02-15T06:11:20;102356.52;;;-0.11;100.00
44663;BME280;30381;52.754;18.258;2023-02-15T06:13:46;102356.34;;;-0.09;100.00
44663;BME280;30381;52.754;18.258;2023-02-15T06:16:12;102362.95;;;-0.07;100.00
44663;BME280;30381;52.754;18.258;2023-02-15T06:18:38;102358.61;;;-0.06;100.00
44663;BME280;30381;52.754;18.258;2023-02-15T06:21:04;102360.02;;;-0.04;100.00
44663;BME280;30381;52.754;18.258;2023-02-15T06:23:33;102356.83;;;-0.02;100.00
44663;BME280;30381;52.754;18.258;2023-02-15T06:26:00;102356.41;;;0.01;100.00
44663;BME280;30381;52.754;18.258;2023-02-15T06:28:28;102358.69;;;0.04;100.00
44663;BME280;30381;52.754;18.258;2023-02-15T06:30:54;102355.83;;;0.06;100.00
44663;BME280;30381;52.754;18.258;2023-02-15T06:33:23;102358.44;;;0.09;100.00
44663;BME280;30381;52.754;18.258;2023-02-15T06:35:49;102358.20;;;0.12;100.00
44663;BME280;30381;52.754;18.258;2023-02-15T06:38:30;102361.06;;;0.14;100.00
44663;BME280;30381;52.754;18.258;2023-02-15T06:41:25;102362.16;;;0.15;100.00
44663;BME280;30381;52.754;18.258;2023-02-15T06:43:52;102364.30;;;0.17;100.00
44663;BME280;30381;52.754;18.258;2023-02-15T06:46:18;102364.02;;;0.18;100.00
44663;BME280;30381;52.754;18.258;2023-02-15T06:48:44;102365.70;;;0.21;100.00
44663;BME280;30381;52.754;18.258;2023-02-15T06:51:13;102364.02;;;0.25;100.00
44663;BME280;30381;52.754;18.258;2023-02-15T06:53:39;102366.77;;;0.30;100.00
44663;BME280;30381;52.754;18.258;2023-02-15T06:56:16;102360.73;;;0.34;100.00
44663;BME280;30381;52.754;18.258;2023-02-15T06:58:42;102361.23;;;0.39;100.00
44663;BME280;30381;52.754;18.258;2023-02-15T07:01:09;102357.48;;;0.44;100.00
44663;BME280;30381;52.754;18.258;2023-02-15T07:03:37;102355.84;;;0.49;100.00
44663;BME280;30381;52.754;18.258;2023-02-15T07:06:04;102354.89;;;0.53;100.00
44663;BME280;30381;52.754;18.258;2023-02-15T07:08:35;102352.64;;;0.57;100.00
44663;BME280;30381;52.754;18.258;2023-02-15T07:11:02;102356.13;;;0.62;100.00
44663;BME280;30381;52.754;18.258;2023-02-15T07:13:47;102348.55;;;0.69;100.00
44663;BME280;30381;52.754;18.258;2023-02-15T07:16:14;102348.22;;;0.75;100.00
44663;BME280;30381;52.754;18.258;2023-02-15T07:18:40;102344.85;;;0.81;100.00
44663;BME280;30381;52.754;18.258;2023-02-15T07:21:07;102340.73;;;0.88;100.00
44663;BME280;30381;52.754;18.258;2023-02-15T07:23:35;102339.61;;;0.97;100.00
44663;BME280;30381;52.754;18.258;2023-02-15T07:26:03;102335.37;;;1.05;100.00
44663;BME280;30381;52.754;18.258;2023-02-15T07:28:29;102338.63;;;1.12;100.00
44663;BME280;30381;52.754;18.258;2023-02-15T07:30:55;102334.77;;;1.21;100.00
44663;BME280;30381;52.754;18.258;2023-02-15T07:33:23;102331.21;;;1.28;100.00
44663;BME280;30381;52.754;18.258;2023-02-15T07:36:12;102328.65;;;1.33;100.00
44663;BME280;30381;52.754;18.258;2023-02-15T07:41:19;102325.56;;;1.48;100.00
44663;BME280;30381;52.754;18.258;2023-02-15T07:43:45;102325.30;;;1.55;100.00
44663;BME280;30381;52.754;18.258;2023-02-15T07:46:15;102317.83;;;1.60;100.00
44663;BME280;30381;52.754;18.258;2023-02-15T07:48:43;102314.98;;;1.66;100.00
44663;BME280;30381;52.754;18.258;2023-02-15T07:51:12;102315.64;;;1.73;100.00
44663;BME280;30381;52.754;18.258;2023-02-15T07:53:40;102309.64;;;1.78;100.00
44663;BME280;30381;52.754;18.258;2023-02-15T07:56:10;102310.39;;;1.84;100.00
44663;BME280;30381;52.754;18.258;2023-02-15T07:58:37;102307.36;;;1.88;100.00
44663;BME280;30381;52.754;18.258;2023-02-15T08:01:18;102298.59;;;1.92;100.00
44663;BME280;30381;52.754;18.258;2023-02-15T08:03:46;102293.35;;;1.95;100.00
44663;BME280;30381;52.754;18.258;2023-02-15T08:06:12;102295.54;;;1.98;100.00
44663;BME280;30381;52.754;18.258;2023-02-15T08:08:54;102295.82;;;2.05;100.00
44663;BME280;30381;52.754;18.258;2023-02-15T08:11:28;102299.50;;;2.09;100.00
44663;BME280;30381;52.754;18.258;2023-02-15T08:14:17;102297.91;;;2.13;100.00
44663;BME280;30381;52.754;18.258;2023-02-15T08:16:51;102297.43;;;2.18;100.00
44663;BME280;30381;52.754;18.258;2023-02-15T08:19:29;102291.90;;;2.23;100.00
44663;BME280;30381;52.754;18.258;2023-02-15T08:22:06;102289.36;;;2.29;100.00
44663;BME280;30381;52.754;18.258;2023-02-15T08:24:36;102281.35;;;2.35;100.00
44663;BME280;30381;52.754;18.258;2023-02-15T08:27:04;102281.85;;;2.38;100.00
44663;BME280;30381;52.754;18.258;2023-02-15T08:29:34;102279.83;;;2.43;100.00
44663;BME280;30381;52.754;18.258;2023-02-15T08:32:03;102274.73;;;2.46;100.00
44663;BME280;30381;52.754;18.258;2023-02-15T08:34:31;102275.62;;;2.52;100.00
44663;BME280;30381;52.754;18.258;2023-02-15T08:36:58;102276.27;;;2.56;100.00
44663;BME280;30381;52.754;18.258;2023-02-15T08:39:24;102273.02;;;2.58;100.00
44663;BME280;30381;52.754;18.258;2023-02-15T08:41:51;102276.89;;;2.63;100.00
44663;BME280;30381;52.754;18.258;2023-02-15T08:44:18;102270.02;;;2.66;100.00
44663;BME280;30381;52.754;18.258;2023-02-15T08:46:48;102269.02;;;2.71;100.00
44663;BME280;30381;52.754;18.258;2023-02-15T08:49:19;102268.67;;;2.74;100.00
44663;BME280;30381;52.754;18.258;2023-02-15T08:51:47;102261.77;;;2.79;100.00
44663;BME280;30381;52.754;18.258;2023-02-15T08:54:17;102254.58;;;2.85;100.00
44663;BME280;30381;52.754;18.258;2023-02-15T08:56:45;102254.23;;;2.91;100.00
44663;BME280;30381;52.754;18.258;2023-02-15T08:59:17;102252.30;;;2.96;100.00
44663;BME280;30381;52.754;18.258;2023-02-15T09:01:44;102249.29;;;3.01;100.00
44663;BME280;30381;52.754;18.258;2023-02-15T09:04:12;102247.95;;;3.04;100.00
44663;BME280;30381;52.754;18.258;2023-02-15T09:06:40;102242.86;;;3.08;100.00
44663;BME280;30381;52.754;18.258;2023-02-15T09:09:07;102239.15;;;3.11;100.00
44663;BME280;30381;52.754;18.258;2023-02-15T09:11:36;102237.69;;;3.15;100.00
44663;BME280;30381;52.754;18.258;2023-02-15T09:14:06;102239.20;;;3.17;100.00
44663;BME280;30381;52.754;18.258;2023-02-15T09:16:34;102236.00;;;3.21;100.00
44663;BME280;30381;52.754;18.258;2023-02-15T09:19:01;102235.86;;;3.26;100.00
44663;BME280;30381;52.754;18.258;2023-02-15T09:21:28;102234.52;;;3.29;100.00
44663;BME280;30381;52.754;18.258;2023-02-15T09:23:57;102235.91;;;3.33;100.00
44663;BME280;30381;52.754;18.258;2023-02-15T09:26:30;102235.15;;;3.35;100.00
44663;BME280;30381;52.754;18.258;2023-02-15T09:28:58;102231.52;;;3.36;100.00
44663;BME280;30381;52.754;18.258;2023-02-15T09:31:32;102230.55;;;3.38;100.00
44663;BME280;30381;52.754;18.258;2023-02-15T09:34:00;102228.45;;;3.40;100.00
44663;BME280;30381;52.754;18.258;2023-02-15T09:36:30;102227.52;;;3.38;100.00
44663;BME280;30381;52.754;18.258;2023-02-15T09:41:50;102226.55;;;3.44;100.00
44663;BME280;30381;52.754;18.258;2023-02-15T09:52:48;102221.04;;;3.54;100.00
44663;BME280;30381;52.754;18.258;2023-02-15T10:06:57;102213.73;;;3.59;100.00
44663;BME280;30381;52.754;18.258;2023-02-15T10:09:35;102217.55;;;3.62;100.00
44663;BME280;30381;52.754;18.258;2023-02-15T10:26:16;102200.02;;;3.76;100.00
44663;BME280;30381;52.754;18.258;2023-02-15T10:28:53;102191.92;;;3.78;100.00
44663;BME280;30381;52.754;18.258;2023-02-15T10:31:28;102190.98;;;3.81;100.00
44663;BME280;30381;52.754;18.258;2023-02-15T10:39:40;102175.36;;;3.83;100.00
44663;BME280;30381;52.754;18.258;2023-02-15T10:45:21;102164.48;;;3.85;100.00
44663;BME280;30381;52.754;18.258;2023-02-15T10:50:51;102166.27;;;3.91;100.00
44663;BME280;30381;52.754;18.258;2023-02-15T11:06:52;102152.73;;;3.71;100.00
44663;BME280;30381;52.754;18.258;2023-02-15T11:09:21;102153.70;;;3.72;100.00
44663;BME280;30381;52.754;18.258;2023-02-15T11:11:52;102149.75;;;3.76;100.00
44663;BME280;30381;52.754;18.258;2023-02-15T11:14:58;102148.27;;;3.83;100.00
44663;BME280;30381;52.754;18.258;2023-02-15T11:17:40;102146.42;;;3.91;100.00
44663;BME280;30381;52.754;18.258;2023-02-15T11:20:30;102148.38;;;3.96;100.00
44663;BME280;30381;52.754;18.258;2023-02-15T11:23:01;102143.06;;;4.01;100.00
44663;BME280;30381;52.754;18.258;2023-02-15T11:25:31;102138.48;;;4.08;100.00
44663;BME280;30381;52.754;18.258;2023-02-15T11:27:58;102143.52;;;4.14;100.00
44663;BME280;30381;52.754;18.258;2023-02-15T11:30:33;102140.81;;;4.18;100.00
44663;BME280;30381;52.754;18.258;2023-02-15T11:33:16;102134.89;;;4.20;100.00
44663;BME280;30381;52.754;18.258;2023-02-15T11:35:56;102130.83;;;4.23;100.00
44663;BME280;30381;52.754;18.258;2023-02-15T11:38:28;102126.42;;;4.26;100.00
44663;BME280;30381;52.754;18.258;2023-02-15T11:41:09;102122.27;;;4.24;100.00
44663;BME280;30381;52.754;18.258;2023-02-15T11:44:04;102115.77;;;4.22;100.00
44663;BME280;30381;52.754;18.258;2023-02-15T11:46:34;102112.92;;;4.25;100.00
44663;BME280;30381;52.754;18.258;2023-02-15T11:49:21;102114.69;;;4.28;100.00
44663;BME280;30381;52.754;18.258;2023-02-15T11:51:50;102111.33;;;4.26;100.00
44663;BME280;30381;52.754;18.258;2023-02-15T11:54:24;102106.96;;;4.24;100.00
44663;BME280;30381;52.754;18.258;2023-02-15T11:56:52;102107.11;;;4.21;100.00
44663;BME280;30381;52.754;18.258;2023-02-15T11:59:39;102103.92;;;4.17;100.00
44663;BME280;30381;52.754;18.258;2023-02-15T12:02:19;102102.48;;;4.12;100.00
44663;BME280;30381;52.754;18.258;2023-02-15T12:05:09;102100.23;;;4.12;100.00
44663;BME280;30381;52.754;18.258;2023-02-15T12:07:42;102097.33;;;4.12;100.00
44663;BME280;30381;52.754;18.258;2023-02-15T12:10:22;102096.50;;;4.17;100.00
44663;BME280;30381;52.754;18.258;2023-02-15T12:13:19;102093.25;;;4.19;100.00
44663;BME280;30381;52.754;18.258;2023-02-15T12:15:48;102094.21;;;4.20;100.00
44663;BME280;30381;52.754;18.258;2023-02-15T12:18:32;102096.92;;;4.24;100.00
44663;BME280;30381;52.754;18.258;2023-02-15T12:21:11;102093.20;;;4.29;100.00
44663;BME280;30381;52.754;18.258;2023-02-15T12:23:51;102093.84;;;4.28;100.00
44663;BME280;30381;52.754;18.258;2023-02-15T12:26:25;102091.73;;;4.28;100.00
44663;BME280;30381;52.754;18.258;2023-02-15T12:28:53;102085.72;;;4.32;100.00
44663;BME280;30381;52.754;18.258;2023-02-15T12:31:32;102079.70;;;4.37;100.00
44663;BME280;30381;52.754;18.258;2023-02-15T12:34:08;102070.77;;;4.41;100.00
44663;BME280;30381;52.754;18.258;2023-02-15T12:36:49;102070.20;;;4.46;100.00
44663;BME280;30381;52.754;18.258;2023-02-15T12:39:19;102062.58;;;4.51;100.00
44663;BME280;30381;52.754;18.258;2023-02-15T12:41:57;102063.30;;;4.55;100.00
44663;BME280;30381;52.754;18.258;2023-02-15T12:44:36;102059.93;;;4.57;100.00
44663;BME280;30381;52.754;18.258;2023-02-15T12:47:19;102054.92;;;4.55;100.00
44663;BME280;30381;52.754;18.258;2023-02-15T12:50:15;102049.60;;;4.58;100.00
44663;BME280;30381;52.754;18.258;2023-02-15T12:53:05;102048.20;;;4.61;100.00
44663;BME280;30381;52.754;18.258;2023-02-15T12:55:32;102048.47;;;4.62;100.00
44663;BME280;30381;52.754;18.258;2023-02-15T13:00:33;102039.57;;;4.60;100.00
44663;BME280;30381;52.754;18.258;2023-02-15T13:03:01;102038.98;;;4.64;100.00
44663;BME280;30381;52.754;18.258;2023-02-15T13:08:12;102027.75;;;4.69;100.00
44663;BME280;30381;52.754;18.258;2023-02-15T13:10:58;102021.46;;;4.62;100.00
44663;BME280;30381;52.754;18.258;2023-02-15T13:13:31;102021.54;;;4.55;100.00
44663;BME280;30381;52.754;18.258;2023-02-15T13:16:01;102018.48;;;4.50;100.00
44663;BME280;30381;52.754;18.258;2023-02-15T13:18:35;102013.88;;;4.48;100.00
44663;BME280;30381;52.754;18.258;2023-02-15T13:21:19;102014.52;;;4.46;100.00
44663;BME280;30381;52.754;18.258;2023-02-15T13:23:51;102012.22;;;4.47;100.00
44663;BME280;30381;52.754;18.258;2023-02-15T13:26:22;102008.99;;;4.49;100.00
44663;BME280;30381;52.754;18.258;2023-02-15T13:28:54;102007.13;;;4.50;100.00
44663;BME280;30381;52.754;18.258;2023-02-15T13:31:25;102006.36;;;4.52;100.00
44663;BME280;30381;52.754;18.258;2023-02-15T13:34:25;101999.44;;;4.51;100.00
44663;BME280;30381;52.754;18.258;2023-02-15T13:37:04;101999.53;;;4.54;100.00
44663;BME280;30381;52.754;18.258;2023-02-15T13:42:26;102004.22;;;4.48;100.00
44663;BME280;30381;52.754;18.258;2023-02-15T13:52:21;102000.16;;;4.23;100.00
44663;BME280;30381;52.754;18.258;2023-02-15T13:56:04;102000.44;;;4.15;100.00
44663;BME280;30381;52.754;18.258;2023-02-15T14:32:36;101957.80;;;4.07;100.00
44663;BME280;30381;52.754;18.258;2023-02-15T14:35:38;101959.91;;;4.04;100.00
44663;BME280;30381;52.754;18.258;2023-02-15T14:56:29;101960.04;;;3.98;100.00
44663;BME280;30381;52.754;18.258;2023-02-15T14:59:26;101960.84;;;3.95;100.00
44663;BME280;30381;52.754;18.258;2023-02-15T15:03:00;101957.37;;;3.94;100.00
44663;BME280;30381;52.754;18.258;2023-02-15T15:06:22;101951.18;;;3.94;100.00
44663;BME280;30381;52.754;18.258;2023-02-15T15:09:19;101948.04;;;3.86;100.00
44663;BME280;30381;52.754;18.258;2023-02-15T15:15:34;101949.75;;;3.63;100.00
44663;BME280;30381;52.754;18.258;2023-02-15T15:22:02;101941.66;;;3.48;100.00
44663;BME280;30381;52.754;18.258;2023-02-15T15:25:12;101939.95;;;3.42;100.00
44663;BME280;30381;52.754;18.258;2023-02-15T15:28:05;101935.38;;;3.36;100.00
44663;BME280;30381;52.754;18.258;2023-02-15T15:40:15;101926.22;;;3.16;100.00
44663;BME280;30381;52.754;18.258;2023-02-15T15:47:04;101917.11;;;3.01;100.00
44663;BME280;30381;52.754;18.258;2023-02-15T15:49:43;101913.80;;;2.96;100.00
44663;BME280;30381;52.754;18.258;2023-02-15T15:52:29;101912.23;;;2.93;100.00
44663;BME280;30381;52.754;18.258;2023-02-15T15:55:20;101911.16;;;2.89;100.00
44663;BME280;30381;52.754;18.258;2023-02-15T15:58:16;101901.85;;;2.85;100.00
44663;BME280;30381;52.754;18.258;2023-02-15T16:05:06;101894.73;;;2.77;100.00
44663;BME280;30381;52.754;18.258;2023-02-15T16:07:50;101894.17;;;2.69;100.00